Time;durP1;ratioP1;P1;durP2;ratioP2;P2;SDS_P1;SDS_P2;PMS_P1;PMS_P2;Temp;Humidity;BMP_temperature;BMP_pressure;BME280_temperature;BME280_humidity;BME280_pressure;Samples;Min_cycle;Max_cycle;Signal;HPM_P1;HPM_P2
2022/03/16 00:01:37;;;;;;;43.50;28.13;;;;;;;;;;5042340;28;20077;-88
2022/03/16 00:04:03;;;;;;;45.35;26.30;;;;;;;;;;5041247;28;20177;-88
2022/03/16 00:06:29;;;;;;;44.63;28.10;;;;;;;;;;5041938;28;20089;-89
2022/03/16 00:08:55;;;;;;;51.78;27.55;;;;;;;;;;5041658;28;20041;-89
2022/03/16 00:11:22;;;;;;;46.42;27.25;;;;;;;;;;5041960;28;20048;-88
2022/03/16 00:13:50;;;;;;;56.30;29.27;;;;;;;;;;5042494;28;20063;-89
2022/03/16 00:16:28;;;;;;;54.05;28.60;;;;;;;;;;5043017;28;20102;-92
2022/03/16 00:18:57;;;;;;;45.88;26.55;;;;;;;;;;5059948;28;20067;-91
2022/03/16 00:21:26;;;;;;;51.88;29.90;;;;;;;;;;5044459;28;20095;-93
2022/03/16 00:23:52;;;;;;;43.67;27.10;;;;;;;;;;5043569;28;20054;-92
2022/03/16 00:26:22;;;;;;;52.92;27.52;;;;;;;;;;5044261;28;20044;-94
2022/03/16 00:28:50;;;;;;;56.92;28.02;;;;;;;;;;5044423;28;20037;-92
2022/03/16 00:31:19;;;;;;;49.58;28.67;;;;;;;;;;5059825;28;20053;-95
2022/03/16 00:33:48;;;;;;;52.67;29.40;;;;;;;;;;5044921;28;20416;-94
2022/03/16 00:36:24;;;;;;;52.28;27.90;;;;;;;;;;5044493;28;20082;-95
2022/03/16 00:38:50;;;;;;;49.17;28.88;;;;;;;;;;5042946;28;20044;-95
2022/03/16 00:41:18;;;;;;;46.72;26.00;;;;;;;;;;5043814;28;20052;-94
2022/03/16 00:43:52;;;;;;;47.78;28.45;;;;;;;;;;5044918;28;20051;-96
2022/03/16 00:46:19;;;;;;;46.38;27.60;;;;;;;;;;5042641;28;20087;-95
2022/03/16 00:48:47;;;;;;;45.47;26.90;;;;;;;;;;5043182;28;20062;-94
2022/03/16 00:51:16;;;;;;;56.75;29.40;;;;;;;;;;5042955;28;20060;-90
2022/03/16 00:53:48;;;;;;;51.42;29.08;;;;;;;;;;5045414;28;20489;-95
2022/03/16 00:56:26;;;;;;;47.85;28.55;;;;;;;;;;5047741;28;20083;-94
2022/03/16 00:59:05;;;;;;;50.88;29.75;;;;;;;;;;5048025;28;20167;-94
2022/03/16 01:01:31;;;;;;;50.83;28.52;;;;;;;;;;5046083;28;20051;-90
2022/03/16 01:03:57;;;;;;;49.90;29.17;;;;;;;;;;5046680;28;20489;-90
2022/03/16 01:06:23;;;;;;;54.47;29.25;;;;;;;;;;5045930;28;20045;-92
2022/03/16 01:08:52;;;;;;;52.33;28.63;;;;;;;;;;5047422;28;20108;-93
2022/03/16 01:11:21;;;;;;;51.08;28.17;;;;;;;;;;5046427;28;20044;-92
2022/03/16 01:13:47;;;;;;;47.63;28.20;;;;;;;;;;5045882;28;20052;-94
2022/03/16 01:16:17;;;;;;;48.50;29.65;;;;;;;;;;5062284;28;20080;-94
2022/03/16 01:18:43;;;;;;;52.28;28.25;;;;;;;;;;5045748;28;20051;-92
2022/03/16 01:21:24;;;;;;;46.42;27.55;;;;;;;;;;5064179;28;20049;-94
2022/03/16 01:23:51;;;;;;;57.35;30.90;;;;;;;;;;5063477;28;20040;-94
2022/03/16 01:26:20;;;;;;;43.75;28.13;;;;;;;;;;5046460;28;20044;-87
2022/03/16 01:28:49;;;;;;;52.92;29.95;;;;;;;;;;5044975;28;20048;-89
2022/03/16 01:31:18;;;;;;;58.80;31.13;;;;;;;;;;5061541;28;20125;-89
2022/03/16 01:33:44;;;;;;;56.75;31.35;;;;;;;;;;5044465;28;20044;-88
2022/03/16 01:36:11;;;;;;;54.08;29.30;;;;;;;;;;5061474;28;20116;-89
2022/03/16 01:38:40;;;;;;;59.13;32.35;;;;;;;;;;5044563;28;20041;-89
2022/03/16 01:41:06;;;;;;;48.88;29.55;;;;;;;;;;5061687;28;20060;-91
2022/03/16 01:43:32;;;;;;;50.60;31.23;;;;;;;;;;5044322;28;20051;-89
2022/03/16 01:46:01;;;;;;;56.08;30.50;;;;;;;;;;5078880;28;20130;-92
2022/03/16 01:48:38;;;;;;;53.97;30.02;;;;;;;;;;5061339;28;20040;-88
2022/03/16 01:51:05;;;;;;;57.80;30.67;;;;;;;;;;5044380;28;20044;-90
2022/03/16 01:53:31;;;;;;;56.35;31.27;;;;;;;;;;5044250;28;20104;-90
2022/03/16 01:55:57;;;;;;;64.07;32.38;;;;;;;;;;5044109;28;20040;-88
2022/03/16 01:58:23;;;;;;;58.40;31.65;;;;;;;;;;5045497;28;20473;-88
2022/03/16 02:00:55;;;;;;;57.88;32.40;;;;;;;;;;5044930;28;20052;-88
2022/03/16 02:03:23;;;;;;;57.70;31.38;;;;;;;;;;5044977;28;20083;-90
2022/03/16 02:05:50;;;;;;;55.00;29.90;;;;;;;;;;5059431;28;20044;-88
2022/03/16 02:08:16;;;;;;;52.85;29.45;;;;;;;;;;5043552;28;20040;-90
2022/03/16 02:10:45;;;;;;;53.60;29.35;;;;;;;;;;5044242;28;20045;-88
2022/03/16 02:13:12;;;;;;;54.75;30.88;;;;;;;;;;5044014;28;20040;-92
2022/03/16 02:15:38;;;;;;;48.20;29.33;;;;;;;;;;5061150;28;20098;-90
2022/03/16 02:18:05;;;;;;;52.65;30.73;;;;;;;;;;5043995;28;20485;-88
2022/03/16 02:20:31;;;;;;;51.95;28.98;;;;;;;;;;5043331;28;20165;-88
2022/03/16 02:23:07;;;;;;;45.67;26.90;;;;;;;;;;5044380;28;20485;-90
2022/03/16 02:25:35;;;;;;;51.63;29.08;;;;;;;;;;5044000;28;20045;-88
2022/03/16 02:28:01;;;;;;;45.90;27.38;;;;;;;;;;5044813;28;20048;-88
2022/03/16 02:30:28;;;;;;;45.42;27.35;;;;;;;;;;5043334;28;20056;-88
2022/03/16 02:32:55;;;;;;;44.60;25.05;;;;;;;;;;5043160;28;20052;-87
2022/03/16 02:35:24;;;;;;;48.42;25.75;;;;;;;;;;5043509;28;20523;-90
2022/03/16 02:37:53;;;;;;;45.53;23.65;;;;;;;;;;5043383;28;20064;-87
2022/03/16 02:40:20;;;;;;;49.85;27.60;;;;;;;;;;5060440;28;20049;-87
2022/03/16 02:42:47;;;;;;;43.65;26.77;;;;;;;;;;5059707;28;20573;-87
2022/03/16 02:45:15;;;;;;;43.00;26.92;;;;;;;;;;5042567;28;20570;-89
2022/03/16 02:47:42;;;;;;;46.72;26.77;;;;;;;;;;5043162;28;20047;-88
2022/03/16 02:50:12;;;;;;;49.20;29.48;;;;;;;;;;5044125;28;20041;-92
2022/03/16 02:52:45;;;;;;;61.30;31.13;;;;;;;;;;5043686;28;20090;-90
2022/03/16 02:55:13;;;;;;;57.92;30.95;;;;;;;;;;5059730;28;20122;-88
2022/03/16 02:57:39;;;;;;;50.92;29.75;;;;;;;;;;5043140;28;20048;-90
2022/03/16 03:00:06;;;;;;;56.00;31.27;;;;;;;;;;5078258;28;20048;-90
2022/03/16 03:02:32;;;;;;;57.10;30.67;;;;;;;;;;5044140;28;20397;-90
2022/03/16 03:04:58;;;;;;;48.22;28.45;;;;;;;;;;5044064;28;20040;-91
2022/03/16 03:07:24;;;;;;;57.92;27.70;;;;;;;;;;5043448;28;20051;-91
2022/03/16 03:09:51;;;;;;;61.75;26.48;;;;;;;;;;5077813;28;20041;-89
2022/03/16 03:12:17;;;;;;;59.97;24.92;;;;;;;;;;5060226;28;20139;-91
2022/03/16 03:14:43;;;;;;;87.75;27.15;;;;;;;;;;5059605;28;20049;-90
2022/03/16 03:17:09;;;;;;;195.38;31.67;;;;;;;;;;5059683;28;20059;-90
2022/03/16 03:19:38;;;;;;;222.13;34.70;;;;;;;;;;5060236;28;20378;-91
2022/03/16 03:22:05;;;;;;;174.18;29.30;;;;;;;;;;5059416;28;20093;-88
2022/03/16 03:24:32;;;;;;;126.40;29.77;;;;;;;;;;5059987;28;20051;-89
2022/03/16 03:26:58;;;;;;;89.07;23.98;;;;;;;;;;5059198;28;20041;-90
2022/03/16 03:29:24;;;;;;;171.55;28.88;;;;;;;;;;5043052;28;20048;-90
2022/03/16 03:31:50;;;;;;;151.13;28.35;;;;;;;;;;5059868;28;20354;-90
2022/03/16 03:34:16;;;;;;;183.13;32.40;;;;;;;;;;5059359;28;20040;-88
2022/03/16 03:36:43;;;;;;;138.88;28.98;;;;;;;;;;5043668;28;20048;-90
2022/03/16 03:39:10;;;;;;;69.00;24.17;;;;;;;;;;5042244;28;20047;-88
2022/03/16 03:41:44;;;;;;;238.70;34.53;;;;;;;;;;5042879;28;20496;-89
2022/03/16 03:44:13;;;;;;;337.85;41.60;;;;;;;;;;5041917;28;20055;-89
2022/03/16 03:46:40;;;;;;;252.10;35.05;;;;;;;;;;5042149;28;20062;-88
2022/03/16 03:49:06;;;;;;;240.07;36.15;;;;;;;;;;5040671;28;20164;-91
2022/03/16 03:51:32;;;;;;;199.60;31.13;;;;;;;;;;5040930;28;20048;-90
2022/03/16 03:53:58;;;;;;;247.93;34.08;;;;;;;;;;5042054;28;20357;-90
2022/03/16 03:56:27;;;;;;;165.73;31.50;;;;;;;;;;5059105;28;20050;-91
2022/03/16 03:58:53;;;;;;;147.40;28.52;;;;;;;;;;5041573;28;20075;-89
2022/03/16 04:01:19;;;;;;;247.50;31.80;;;;;;;;;;5042561;28;20045;-88
2022/03/16 04:03:48;;;;;;;175.25;30.73;;;;;;;;;;5075916;28;20108;-90
2022/03/16 04:06:14;;;;;;;270.70;33.95;;;;;;;;;;5041494;28;20044;-88
2022/03/16 04:08:42;;;;;;;326.75;38.13;;;;;;;;;;5042394;28;20066;-92
2022/03/16 04:11:09;;;;;;;219.27;35.40;;;;;;;;;;5042084;28;20094;-92
2022/03/16 04:13:35;;;;;;;223.05;33.85;;;;;;;;;;5041953;28;20088;-94
2022/03/16 04:16:01;;;;;;;109.07;27.48;;;;;;;;;;5041572;28;20047;-90
2022/03/16 04:18:28;;;;;;;129.52;30.10;;;;;;;;;;5041327;28;20524;-92
2022/03/16 04:20:54;;;;;;;140.90;31.95;;;;;;;;;;5074727;28;20056;-93
2022/03/16 04:23:23;;;;;;;229.10;36.58;;;;;;;;;;5041811;28;20048;-92
2022/03/16 04:25:51;;;;;;;409.17;45.47;;;;;;;;;;5058040;28;20052;-89
2022/03/16 04:28:17;;;;;;;134.23;30.73;;;;;;;;;;5041425;28;20389;-91
2022/03/16 04:30:43;;;;;;;140.05;29.58;;;;;;;;;;5042556;28;20549;-92
2022/03/16 04:33:09;;;;;;;375.17;43.45;;;;;;;;;;5041621;28;20139;-93
2022/03/16 04:35:35;;;;;;;271.65;37.08;;;;;;;;;;5042510;28;20066;-94
2022/03/16 04:38:04;;;;;;;397.85;41.17;;;;;;;;;;5041396;28;20048;-91
2022/03/16 04:40:33;;;;;;;287.45;35.17;;;;;;;;;;5040855;28;20044;-91
2022/03/16 04:43:00;;;;;;;187.93;28.23;;;;;;;;;;5040798;28;20041;-92
2022/03/16 04:45:26;;;;;;;164.38;28.98;;;;;;;;;;5041402;28;20528;-92
2022/03/16 04:47:52;;;;;;;175.68;31.27;;;;;;;;;;5041938;28;20135;-91
2022/03/16 04:50:25;;;;;;;203.15;33.65;;;;;;;;;;5057740;28;20108;-93
2022/03/16 04:52:51;;;;;;;259.90;36.47;;;;;;;;;;5042104;28;20037;-94
2022/03/16 04:55:17;;;;;;;307.08;41.72;;;;;;;;;;5041849;28;20052;-91
2022/03/16 04:57:47;;;;;;;218.48;38.28;;;;;;;;;;5042719;28;20090;-93
2022/03/16 05:00:13;;;;;;;130.23;33.42;;;;;;;;;;5057389;28;20048;-92
2022/03/16 05:02:40;;;;;;;281.52;39.53;;;;;;;;;;5040440;28;20076;-88
2022/03/16 05:05:06;;;;;;;458.70;50.03;;;;;;;;;;5056542;28;20040;-90
2022/03/16 05:07:32;;;;;;;350.77;42.22;;;;;;;;;;5057217;28;20492;-89
2022/03/16 05:09:58;;;;;;;446.10;48.35;;;;;;;;;;5040209;28;20054;-88
2022/03/16 05:12:24;;;;;;;406.52;45.22;;;;;;;;;;5039742;28;20086;-89
2022/03/16 05:14:50;;;;;;;394.27;47.17;;;;;;;;;;5040132;28;20076;-88
2022/03/16 05:17:17;;;;;;;204.93;30.98;;;;;;;;;;5040902;28;20489;-91
2022/03/16 05:19:48;;;;;;;202.80;28.08;;;;;;;;;;5036118;28;20057;-89
2022/03/16 05:22:14;;;;;;;191.07;29.85;;;;;;;;;;5037111;28;20103;-91
2022/03/16 05:24:41;;;;;;;178.35;29.67;;;;;;;;;;5037537;28;20045;-89
2022/03/16 05:27:07;;;;;;;89.38;24.40;;;;;;;;;;5053815;28;20056;-88
2022/03/16 05:29:33;;;;;;;68.03;24.02;;;;;;;;;;5036654;28;20154;-91
2022/03/16 05:31:59;;;;;;;103.93;25.35;;;;;;;;;;5036362;28;20037;-88
2022/03/16 05:34:25;;;;;;;140.88;26.48;;;;;;;;;;5037991;28;20483;-88
2022/03/16 05:36:51;;;;;;;80.13;23.98;;;;;;;;;;5053742;28;20033;-88
2022/03/16 05:39:21;;;;;;;105.43;28.13;;;;;;;;;;5055685;28;20056;-89
2022/03/16 05:41:47;;;;;;;68.47;24.83;;;;;;;;;;5039961;28;20405;-90
2022/03/16 05:44:15;;;;;;;38.60;23.35;;;;;;;;;;5057403;28;20504;-91
2022/03/16 05:46:44;;;;;;;30.85;21.73;;;;;;;;;;5040423;28;20048;-90
2022/03/16 05:49:11;;;;;;;46.22;23.52;;;;;;;;;;5040768;28;20504;-90
2022/03/16 05:51:37;;;;;;;40.50;22.23;;;;;;;;;;5058462;28;20075;-88
2022/03/16 05:54:03;;;;;;;42.97;23.25;;;;;;;;;;5040826;28;20041;-88
2022/03/16 05:56:31;;;;;;;39.25;22.75;;;;;;;;;;5042910;28;20052;-90
2022/03/16 05:58:58;;;;;;;38.20;23.58;;;;;;;;;;5043030;28;20036;-91
2022/03/16 06:01:24;;;;;;;33.83;21.70;;;;;;;;;;5041394;28;20048;-90
2022/03/16 06:03:50;;;;;;;39.83;23.55;;;;;;;;;;5043024;28;20485;-90
2022/03/16 06:06:20;;;;;;;41.25;24.13;;;;;;;;;;5042789;28;20048;-88
2022/03/16 06:08:46;;;;;;;36.22;22.65;;;;;;;;;;5042609;28;20045;-89
2022/03/16 06:11:12;;;;;;;39.05;24.25;;;;;;;;;;5042076;28;20076;-88
2022/03/16 06:13:38;;;;;;;43.40;24.38;;;;;;;;;;5041442;28;20494;-88
2022/03/16 06:16:04;;;;;;;42.45;24.35;;;;;;;;;;5041493;28;20108;-87
2022/03/16 06:18:34;;;;;;;39.97;24.33;;;;;;;;;;5041928;28;20049;-87
2022/03/16 06:21:00;;;;;;;42.85;26.90;;;;;;;;;;5057769;28;20118;-86
2022/03/16 06:23:26;;;;;;;43.13;27.45;;;;;;;;;;5056562;28;20486;-86
2022/03/16 06:25:52;;;;;;;44.65;26.08;;;;;;;;;;5057627;28;20045;-87
2022/03/16 06:28:20;;;;;;;46.30;26.05;;;;;;;;;;5040247;28;20041;-86
2022/03/16 06:30:47;;;;;;;47.03;26.73;;;;;;;;;;5039634;28;20132;-87
2022/03/16 06:33:13;;;;;;;43.33;26.20;;;;;;;;;;5039637;28;20096;-87
2022/03/16 06:35:48;;;;;;;45.45;27.20;;;;;;;;;;5040650;28;20044;-87
2022/03/16 06:38:14;;;;;;;43.75;27.15;;;;;;;;;;5054956;28;20107;-87
2022/03/16 06:40:40;;;;;;;39.70;25.77;;;;;;;;;;5038828;28;20041;-87
2022/03/16 06:43:07;;;;;;;42.10;25.83;;;;;;;;;;5055787;28;20044;-87
2022/03/16 06:45:33;;;;;;;42.90;24.48;;;;;;;;;;5039117;28;20490;-87
2022/03/16 06:48:00;;;;;;;41.63;26.60;;;;;;;;;;5056700;28;20538;-86
2022/03/16 06:50:27;;;;;;;43.03;24.52;;;;;;;;;;5056342;28;20049;-88
2022/03/16 06:52:56;;;;;;;38.88;26.38;;;;;;;;;;5056370;28;20075;-87
2022/03/16 06:55:23;;;;;;;41.72;24.60;;;;;;;;;;5040234;28;20059;-87
2022/03/16 06:57:49;;;;;;;39.05;24.40;;;;;;;;;;5038720;28;20516;-86
2022/03/16 07:00:15;;;;;;;34.97;23.20;;;;;;;;;;5039817;28;20044;-87
2022/03/16 07:02:58;;;;;;;35.67;23.48;;;;;;;;;;5040129;28;20513;-89
2022/03/16 07:05:31;;;;;;;40.47;24.52;;;;;;;;;;5056620;28;20532;-87
2022/03/16 07:07:57;;;;;;;36.72;23.27;;;;;;;;;;5038462;28;20088;-87
2022/03/16 07:10:24;;;;;;;35.03;23.42;;;;;;;;;;5054680;28;20087;-87
2022/03/16 07:12:50;;;;;;;41.88;24.20;;;;;;;;;;5037990;28;20045;-87
2022/03/16 07:15:16;;;;;;;45.50;25.25;;;;;;;;;;5037678;28;20490;-86
2022/03/16 07:17:42;;;;;;;39.97;25.27;;;;;;;;;;5037485;28;20083;-87
2022/03/16 07:20:08;;;;;;;37.58;23.90;;;;;;;;;;5073890;28;20127;-87
2022/03/16 07:22:35;;;;;;;39.72;23.80;;;;;;;;;;5040156;28;20047;-87
2022/03/16 07:25:03;;;;;;;38.55;24.42;;;;;;;;;;5058025;28;20380;-89
2022/03/16 07:27:31;;;;;;;41.20;25.40;;;;;;;;;;5041110;28;20037;-87
2022/03/16 07:29:57;;;;;;;46.38;27.38;;;;;;;;;;5040770;28;20055;-87
2022/03/16 07:32:23;;;;;;;42.42;26.25;;;;;;;;;;5040982;28;20040;-92
2022/03/16 07:34:50;;;;;;;47.17;27.10;;;;;;;;;;5056911;28;20040;-87
2022/03/16 07:37:17;;;;;;;37.88;25.63;;;;;;;;;;5058288;28;20048;-88
2022/03/16 07:39:43;;;;;;;51.00;28.77;;;;;;;;;;5040863;28;20443;-89
2022/03/16 07:42:09;;;;;;;47.30;26.58;;;;;;;;;;5040841;28;20132;-88
2022/03/16 07:44:35;;;;;;;46.72;28.17;;;;;;;;;;5040570;28;20051;-89
2022/03/16 07:47:02;;;;;;;42.88;26.77;;;;;;;;;;5040760;28;20401;-89
2022/03/16 07:49:29;;;;;;;44.33;26.45;;;;;;;;;;5041375;28;20052;-91
2022/03/16 07:51:55;;;;;;;50.72;28.10;;;;;;;;;;5041711;28;20058;-93
2022/03/16 07:54:22;;;;;;;54.55;30.10;;;;;;;;;;5041256;28;20040;-92
2022/03/16 07:56:48;;;;;;;43.03;27.13;;;;;;;;;;5040668;28;20044;-91
2022/03/16 07:59:15;;;;;;;44.83;26.25;;;;;;;;;;5041447;28;20393;-90
2022/03/16 08:01:43;;;;;;;46.97;28.55;;;;;;;;;;5041111;28;20048;-93
2022/03/16 08:04:09;;;;;;;46.08;25.70;;;;;;;;;;5041714;28;20047;-95
2022/03/16 08:06:35;;;;;;;48.50;26.75;;;;;;;;;;5041582;28;20044;-94
2022/03/16 08:09:02;;;;;;;56.30;27.80;;;;;;;;;;5058885;28;20047;-91
2022/03/16 08:11:28;;;;;;;41.78;25.58;;;;;;;;;;5040994;28;20408;-90
2022/03/16 08:13:54;;;;;;;40.25;24.20;;;;;;;;;;5041533;28;20047;-90
2022/03/16 08:16:20;;;;;;;39.15;24.98;;;;;;;;;;5056976;28;20048;-89
2022/03/16 08:18:46;;;;;;;47.50;27.58;;;;;;;;;;5053057;28;20092;-91
2022/03/16 08:21:12;;;;;;;46.33;27.50;;;;;;;;;;5053407;28;20084;-90
2022/03/16 08:23:38;;;;;;;42.45;25.35;;;;;;;;;;5054136;28;20131;-92
2022/03/16 08:26:23;;;;;;;;;;;;;;;;;;;;;
2022/03/16 08:28:50;;;;;;;37.70;23.60;;;;;;;;;;5023226;28;20399;-91
2022/03/16 08:31:17;;;;;;;40.42;22.77;;;;;;;;;;5037647;28;20041;-91
2022/03/16 08:33:43;;;;;;;34.42;22.33;;;;;;;;;;5036579;28;20055;-90
2022/03/16 08:36:10;;;;;;;38.97;23.30;;;;;;;;;;5037316;28;20044;-92
2022/03/16 08:38:37;;;;;;;42.10;24.02;;;;;;;;;;5037739;28;20037;-89
2022/03/16 08:41:04;;;;;;;33.35;21.40;;;;;;;;;;5037330;28;20041;-92
2022/03/16 08:47:33;;;;;;;37.65;23.17;;;;;;;;;;5047008;28;20053;-88
2022/03/16 08:49:59;;;;;;;37.22;23.60;;;;;;;;;;5018162;28;20045;-95
2022/03/16 08:52:25;;;;;;;39.70;22.80;;;;;;;;;;5017181;28;20088;-93
2022/03/16 08:54:51;;;;;;;32.80;21.60;;;;;;;;;;5001968;28;20037;-92
2022/03/16 08:57:37;;;;;;;39.78;22.80;;;;;;;;;;5020185;28;20062;-92
2022/03/16 09:00:34;;;;;;;34.95;21.15;;;;;;;;;;4978328;28;20137;-89
2022/03/16 09:03:00;;;;;;;34.55;22.85;;;;;;;;;;4904904;29;20084;-92
2022/03/16 09:05:26;;;;;;;31.05;18.80;;;;;;;;;;4906283;29;20059;-91
2022/03/16 09:07:53;;;;;;;36.75;20.45;;;;;;;;;;4905670;29;20063;-90
2022/03/16 09:10:19;;;;;;;32.22;21.08;;;;;;;;;;4904849;29;20409;-93
2022/03/16 09:12:48;;;;;;;32.55;20.58;;;;;;;;;;4904630;29;20067;-93
2022/03/16 09:15:17;;;;;;;29.35;20.23;;;;;;;;;;4908892;29;20055;-89
2022/03/16 09:18:26;;;;;;;;;;;;;;;;;;;;;
2022/03/16 09:21:00;;;;;;;38.53;22.92;;;;;;;;;;4941272;29;20167;-93
2022/03/16 09:26:45;;;;;;;29.05;20.73;;;;;;;;;;4924110;28;20057;-92
2022/03/16 09:29:11;;;;;;;31.65;22.38;;;;;;;;;;4962724;28;20164;-90
2022/03/16 09:31:38;;;;;;;44.10;21.98;;;;;;;;;;4945785;28;20369;-89
2022/03/16 09:34:07;;;;;;;37.65;21.23;;;;;;;;;;4979493;28;20063;-88
2022/03/16 09:36:34;;;;;;;34.63;21.63;;;;;;;;;;4977859;28;20050;-89
2022/03/16 09:39:27;;;;;;;32.70;21.17;;;;;;;;;;4957004;28;20076;-91
2022/03/16 09:41:54;;;;;;;36.38;22.25;;;;;;;;;;5035952;28;20453;-89
2022/03/16 09:44:22;;;;;;;34.88;22.40;;;;;;;;;;5021631;28;20110;-90
2022/03/16 09:46:50;;;;;;;32.35;21.70;;;;;;;;;;5021432;28;20478;-91
2022/03/16 09:49:16;;;;;;;41.33;22.58;;;;;;;;;;5037533;28;20439;-92
2022/03/16 09:51:42;;;;;;;37.72;19.38;;;;;;;;;;5020695;28;20037;-92
2022/03/16 09:54:11;;;;;;;36.53;21.48;;;;;;;;;;5036587;28;20049;-91
2022/03/16 09:56:38;;;;;;;32.63;21.20;;;;;;;;;;5021219;28;20053;-88
2022/03/16 09:59:04;;;;;;;34.47;18.50;;;;;;;;;;5036882;28;20123;-90
2022/03/16 10:01:34;;;;;;;28.40;16.98;;;;;;;;;;5020316;28;20077;-93
2022/03/16 10:04:03;;;;;;;28.63;18.67;;;;;;;;;;5020448;28;20059;-90
2022/03/16 10:06:30;;;;;;;31.23;16.20;;;;;;;;;;5036848;28;20116;-88
2022/03/16 10:15:00;;;;;;;25.02;14.82;;;;;;;;;;4997571;28;20058;-90
2022/03/16 10:17:47;;;;;;;21.10;14.38;;;;;;;;;;4966091;28;20074;-93
2022/03/16 10:20:34;;;;;;;22.02;14.07;;;;;;;;;;4936843;29;20055;-92
2022/03/16 10:23:05;;;;;;;23.15;14.70;;;;;;;;;;4927747;29;20477;-90
2022/03/16 10:25:33;;;;;;;24.55;14.07;;;;;;;;;;4960143;28;20107;-94
2022/03/16 10:28:10;;;;;;;18.38;12.85;;;;;;;;;;4929045;29;20055;-86
2022/03/16 10:30:40;;;;;;;21.42;13.25;;;;;;;;;;4964184;28;20537;-90
2022/03/16 10:33:20;;;;;;;19.30;12.20;;;;;;;;;;4929514;29;20063;-91
2022/03/16 10:36:00;;;;;;;20.52;14.23;;;;;;;;;;4930133;29;20153;-91
2022/03/16 10:38:26;;;;;;;23.35;14.25;;;;;;;;;;4945814;29;20146;-94
2022/03/16 10:41:09;;;;;;;16.98;11.30;;;;;;;;;;4932776;29;20043;-88
2022/03/16 10:46:38;;;;;;;17.80;11.88;;;;;;;;;;4940604;29;20063;-92
2022/03/16 10:49:16;;;;;;;;;;;;;;;;;;;;;
2022/03/16 10:52:05;;;;;;;19.77;11.85;;;;;;;;;;4938218;29;20056;-88
2022/03/16 10:54:35;;;;;;;15.48;10.80;;;;;;;;;;4910799;29;20050;-92
2022/03/16 10:57:12;;;;;;;;;;;;;;;;;;;;;
2022/03/16 10:59:42;;;;;;;15.45;10.27;;;;;;;;;;4983105;28;20062;-90
2022/03/16 11:02:12;;;;;;;15.05;9.88;;;;;;;;;;4967078;28;20486;-88
2022/03/16 11:04:42;;;;;;;13.02;9.38;;;;;;;;;;4994424;28;20136;-88
2022/03/16 11:07:12;;;;;;;17.98;9.80;;;;;;;;;;4968708;28;20058;-90
2022/03/16 11:09:43;;;;;;;11.95;8.75;;;;;;;;;;4964394;28;20054;-89
2022/03/16 11:15:09;;;;;;;12.35;9.10;;;;;;;;;;4980039;28;20054;-91
2022/03/16 11:17:40;;;;;;;12.25;9.23;;;;;;;;;;4964007;28;20097;-91
2022/03/16 11:20:32;;;;;;;14.80;9.48;;;11.90;99.90;;;;;;4971933;28;20050;-90
2022/03/16 11:25:58;;;;;;;14.75;10.20;;;;;;;;;;4979938;28;20047;-89
2022/03/16 11:28:37;;;;;;;16.67;9.95;;;;;;;;;;4964992;28;20061;-89
2022/03/16 11:31:13;;;;;;;18.08;9.50;;;;;;;;;;4964167;28;20050;-89
2022/03/16 11:36:47;;;;;;;17.95;8.32;;;;;;;;;;4999701;28;20050;-87
2022/03/16 11:39:18;;;;;;;14.90;10.15;;;;;;;;;;5008345;28;20058;-88
2022/03/16 11:41:52;;;;;;;13.70;8.85;;;;;;;;;;5005488;28;20042;-91
2022/03/16 11:44:26;;;;;;;;;;;12.30;99.90;;;;;;4996814;28;20052;-90
2022/03/16 11:47:15;;;;;;;16.10;9.02;;;;;;;;;;4960472;28;19948;-92
2022/03/16 11:50:04;;;;;;;15.50;10.18;;;;;;;;;;4960374;28;20054;-89
2022/03/16 11:53:04;;;;;;;;;;;;;;;;;;;;;
2022/03/16 11:56:02;;;;;;;16.60;9.23;;;;;;;;;;4976265;28;20081;-90
2022/03/16 11:58:35;;;;;;;20.55;10.32;;;;;;;;;;4954561;28;20062;-89
2022/03/16 12:01:28;;;;;;;17.40;10.63;;;;;;;;;;4974955;28;20058;-90
2022/03/16 12:04:38;;;;;;;12.77;9.30;;;;;;;;;;4973607;28;20496;-89
2022/03/16 12:07:35;;;;;;;;;;;13.10;99.90;;;;;;4968752;28;20055;-90
2022/03/16 12:10:15;;;;;;;13.05;8.82;;;;;;;;;;4953336;28;19989;-89
2022/03/16 12:12:56;;;;;;;12.55;9.40;;;;;;;;;;4993757;28;20105;-89
2022/03/16 12:18:07;;;;;;;15.98;9.82;;;;;;;;;;5221768;23;20053;-88
2022/03/16 12:20:56;;;;;;;15.10;9.38;;;;;;;;;;5049331;28;20075;-88
2022/03/16 12:23:49;;;;;;;10.40;7.63;;;;;;;;;;5049272;28;20061;-88
2022/03/16 12:26:33;;;;;;;14.30;9.23;;;;;;;;;;5046838;28;20471;-88
2022/03/16 12:29:08;;;;;;;13.85;9.98;;;;;;;;;;5044644;28;20071;-89
2022/03/16 12:31:42;;;;;;;12.15;7.95;;;;;;;;;;5043895;28;20049;-89
2022/03/16 12:34:13;;;;;;;;;;;13.70;99.90;;;;;;5051946;28;20053;-89
2022/03/16 12:36:42;;;;;;;14.15;9.70;;;;;;;;;;5034789;28;19905;-89
2022/03/16 12:39:15;;;;;;;16.52;11.35;;;;;;;;;;5033785;28;20126;-92
2022/03/16 12:57:52;;;;;;;12.40;9.13;;;;;;;;;;3466943;22;19925;-95
2022/03/16 13:00:43;;;;;;;15.15;9.82;;;;;;;;;;4967089;28;20084;-96
2022/03/16 13:03:15;;;;;;;15.30;10.55;;;;;;;;;;4972792;28;20082;-96
2022/03/16 13:09:55;;;;;;;19.58;10.23;;;;;;;;;;5006325;23;20065;-93
2022/03/16 13:12:56;;;;;;;14.82;9.55;;;;;;;;;;4945128;28;20133;-93
2022/03/16 13:15:36;;;;;;;15.45;9.35;;;;;;;;;;4963893;28;20155;-95
2022/03/16 13:18:34;;;;;;;;;;;13.90;99.90;;;;;;4962299;28;20094;-93
2022/03/16 13:21:23;;;;;;;14.93;9.88;;;14.20;99.90;;;;;;4978821;28;19923;-91
2022/03/16 13:23:59;;;;;;;13.52;9.77;;;;;;;;;;4946306;29;20059;-93
2022/03/16 13:26:28;;;;;;;17.15;10.15;;;;;;;;;;4957833;29;20059;-92
2022/03/16 13:28:55;;;;;;;14.63;9.13;;;;;;;;;;4957583;29;20094;-88
2022/03/16 13:31:25;;;;;;;17.63;8.82;;;;;;;;;;4956809;29;20109;-91
2022/03/16 13:34:31;;;;;;;16.17;9.82;;;14.00;99.90;;;;;;4943548;29;20055;-93
2022/03/16 13:37:20;;;;;;;15.52;8.77;;;;;;;;;;4955738;29;20074;-94
2022/03/16 13:40:21;;;;;;;;;;;;;;;;;;;;;
2022/03/16 13:43:00;;;;;;;18.15;9.02;;;;;;;;;;5007370;23;20045;-93
2022/03/16 13:45:27;;;;;;;18.40;9.07;;;;;;;;;;5061358;28;20055;-93
2022/03/16 13:48:27;;;;;;;14.05;8.77;;;;;;;;;;5059389;28;20051;-92
2022/03/16 13:51:13;;;;;;;17.67;10.38;;;;;;;;;;4941854;29;20048;-95
2022/03/16 13:53:52;;;;;;;11.85;9.38;;;;;;;;;;4926735;28;20502;-93
2022/03/16 13:56:22;;;;;;;13.38;9.82;;;;;;;;;;4907087;29;20062;-92
2022/03/16 13:58:54;;;;;;;13.40;8.65;;;;;;;;;;4923934;29;20040;-92
2022/03/16 14:01:21;;;;;;;15.27;11.05;;;;;;;;;;4906993;29;20071;-89
2022/03/16 14:04:34;;;;;;;15.63;10.45;;;;;;;;;;5021707;23;20060;-93
2022/03/16 14:07:43;;;;;;;15.73;11.47;;;;;;;;;;4972763;28;20050;-95
2022/03/16 14:10:33;;;;;;;14.32;11.20;;;;;;;;;;4988794;28;20046;-95
2022/03/16 14:19:25;;;;;;;;;;;14.10;99.90;;;;;;5519808;22;20560;-93
2022/03/16 14:21:54;;;;;;;16.98;11.00;;;;;;;;;;5051278;28;20019;-88
2022/03/16 14:24:50;;;;;;;22.88;11.88;;;14.10;99.90;;;;;;5053247;28;20112;-95
2022/03/16 14:27:18;;;;;;;18.95;11.55;;;;;;;;;;5035172;28;20505;-91
2022/03/16 14:30:17;;;;;;;20.35;11.63;;;14.00;99.90;;;;;;5047230;28;20051;-95
2022/03/16 14:32:50;;;;;;;17.15;10.73;;;;;;;;;;5048532;28;20044;-91
2022/03/16 14:38:50;;;;;;;19.65;12.95;;;13.90;99.90;;;;;;5010891;28;20038;-96
2022/03/16 14:41:50;;;;;;;20.80;12.90;;;;;;;;;;4957814;29;20047;-93
2022/03/16 14:47:04;;;;;;;20.65;12.95;;;;;;;;;;5149714;22;20060;-87
2022/03/16 14:53:11;;;;;;;19.55;12.02;;;;;;;;;;4961043;29;20051;-91
2022/03/16 14:55:40;;;;;;;22.38;13.20;;;;;;;;;;4961449;28;20078;-92
2022/03/16 14:58:12;;;;;;;16.50;12.70;;;;;;;;;;4944569;29;20445;-90
2022/03/16 15:00:44;;;;;;;21.38;12.93;;;;;;;;;;4959834;29;20050;-86
2022/03/16 15:03:10;;;;;;;18.60;12.43;;;;;;;;;;4960279;29;20540;-88
2022/03/16 15:05:37;;;;;;;16.80;12.10;;;;;;;;;;4976847;28;20181;-86
2022/03/16 15:08:03;;;;;;;19.88;12.73;;;;;;;;;;4975902;28;20115;-88
2022/03/16 15:10:29;;;;;;;21.05;12.27;;;;;;;;;;4944866;29;20146;-92
2022/03/16 15:12:56;;;;;;;21.60;11.93;;;;;;;;;;4974421;28;20062;-87
2022/03/16 15:15:22;;;;;;;19.42;13.32;;;;;;;;;;4957358;29;20059;-87
2022/03/16 15:17:51;;;;;;;18.60;12.45;;;;;;;;;;4946419;29;20576;-92
2022/03/16 15:23:53;;;;;;;20.33;13.55;;;;;;;;;;4929028;29;20587;-92
2022/03/16 15:26:21;;;;;;;19.13;13.40;;;;;;;;;;4927183;29;20040;-93
2022/03/16 15:28:51;;;;;;;20.17;12.25;;;;;;;;;;4940593;28;20050;-91
2022/03/16 15:34:47;;;;;;;21.92;12.88;;;;;;;;;;5000037;28;20037;-92
2022/03/16 15:45:07;;;;;;;19.13;13.57;;;;;;;;;;4959200;28;20106;-92
2022/03/16 15:47:46;;;;;;;19.40;12.77;;;;;;;;;;4908136;29;20063;-91
2022/03/16 15:50:28;;;;;;;;;;;;;;;;;;;;;
2022/03/16 15:56:41;;;;;;;23.27;14.02;;;;;;;;;;4980763;22;20046;-92
2022/03/16 15:59:56;;;;;;;21.40;13.65;;;13.30;99.90;;;;;;5025795;28;20112;-96
2022/03/16 16:02:23;;;;;;;21.10;12.80;;;;;;;;;;4940453;28;20079;-92
2022/03/16 16:08:30;;;;;;;;;;;;;;;;;;;;;
2022/03/16 16:11:09;;;;;;;24.00;15.27;;;;;;;;;;4917220;29;20052;-90